createdAt,value
2018-07-25T00:00:52.403Z,0.00
2018-07-25T00:01:52.587Z,0.00
2018-07-25T00:02:52.863Z,0.00
2018-07-25T00:03:52.907Z,0.00
2018-07-25T00:04:53.080Z,0.00
2018-07-25T00:05:53.264Z,0.00
2018-07-25T00:06:53.446Z,0.00
2018-07-25T00:07:53.634Z,0.00
2018-07-25T00:08:53.805Z,0.00
2018-07-25T00:09:53.984Z,0.00
2018-07-25T00:10:54.161Z,0.00
2018-07-25T00:11:54.337Z,0.00
2018-07-25T00:12:54.508Z,0.00
2018-07-25T00:13:54.679Z,0.00
2018-07-25T00:14:54.868Z,0.00
2018-07-25T00:15:55.050Z,0.00
2018-07-25T00:16:55.222Z,0.00
2018-07-25T00:17:55.398Z,0.00
2018-07-25T00:18:55.579Z,0.00
2018-07-25T00:19:55.760Z,0.00
2018-07-25T00:20:55.940Z,0.00
2018-07-25T00:21:56.114Z,0.00
2018-07-25T00:22:56.291Z,0.00
2018-07-25T00:23:56.479Z,0.00
2018-07-25T00:24:56.660Z,0.00
2018-07-25T00:25:56.829Z,0.00
2018-07-25T00:26:57.012Z,0.00
2018-07-25T00:27:57.192Z,0.00
2018-07-25T00:28:57.367Z,0.00
2018-07-25T00:29:57.546Z,0.00
2018-07-25T00:30:57.727Z,0.00
2018-07-25T00:31:57.909Z,0.00
2018-07-25T00:32:58.088Z,0.00
2018-07-25T00:33:58.262Z,0.00
2018-07-25T00:34:58.441Z,0.00
2018-07-25T00:35:58.617Z,0.00
2018-07-25T00:36:58.794Z,0.00
2018-07-25T00:37:58.976Z,0.00
2018-07-25T00:38:59.155Z,0.00
2018-07-25T00:39:59.330Z,0.00
2018-07-25T00:40:59.515Z,0.00
2018-07-25T00:41:59.701Z,0.00
2018-07-25T00:42:59.869Z,0.00
2018-07-25T00:44:00.053Z,0.00
2018-07-25T00:45:00.232Z,0.00
2018-07-25T00:46:00.411Z,0.00
2018-07-25T00:47:00.594Z,0.00
2018-07-25T00:48:00.773Z,0.00
2018-07-25T00:49:00.970Z,0.00
2018-07-25T00:50:01.148Z,0.00
2018-07-25T00:51:01.327Z,0.00
2018-07-25T00:52:01.504Z,0.00
2018-07-25T00:53:01.683Z,0.00
2018-07-25T00:54:01.860Z,0.00
2018-07-25T00:55:02.057Z,0.00
2018-07-25T00:56:02.234Z,0.00
2018-07-25T00:57:02.419Z,0.00
2018-07-25T00:58:02.594Z,0.00
2018-07-25T00:59:02.781Z,0.00
2018-07-25T01:00:02.953Z,0.00
2018-07-25T01:01:03.128Z,0.00
2018-07-25T01:02:03.308Z,0.00
2018-07-25T01:03:03.501Z,0.00
2018-07-25T01:04:03.674Z,0.00
2018-07-25T01:05:03.847Z,0.00
2018-07-25T01:06:04.027Z,0.00
2018-07-25T01:07:04.205Z,0.00
2018-07-25T01:08:04.388Z,0.00
2018-07-25T01:09:04.566Z,0.00
2018-07-25T01:10:04.745Z,0.00
2018-07-25T01:11:04.926Z,0.00
2018-07-25T01:12:05.099Z,0.00
2018-07-25T01:13:05.280Z,0.00
2018-07-25T01:14:05.463Z,0.00
2018-07-25T01:15:05.639Z,0.00
2018-07-25T01:16:05.812Z,0.00
2018-07-25T01:17:05.980Z,0.00
2018-07-25T01:18:06.160Z,0.00
2018-07-25T01:19:06.338Z,0.00
2018-07-25T01:20:06.516Z,0.00
2018-07-25T01:21:06.690Z,0.00
2018-07-25T01:22:10.176Z,0.00
2018-07-25T01:23:07.076Z,0.00
2018-07-25T01:24:08.781Z,0.00
2018-07-25T01:25:07.459Z,0.00
2018-07-25T01:26:07.677Z,0.00
2018-07-25T01:27:07.888Z,0.00
2018-07-25T01:28:08.077Z,0.00
2018-07-25T01:29:08.254Z,0.00
2018-07-25T01:30:08.430Z,0.00
2018-07-25T01:31:08.603Z,0.00
2018-07-25T01:32:08.776Z,0.00
2018-07-25T01:33:08.957Z,0.00
2018-07-25T01:34:09.134Z,0.00
2018-07-25T01:35:09.310Z,0.00
2018-07-25T01:36:09.487Z,0.00
2018-07-25T01:37:09.664Z,0.00
2018-07-25T01:38:09.845Z,0.00
2018-07-25T01:39:10.020Z,0.00
2018-07-25T01:40:10.190Z,0.00
2018-07-25T01:41:10.365Z,0.00
2018-07-25T01:42:10.544Z,0.00
2018-07-25T01:43:10.717Z,0.00
2018-07-25T01:44:10.893Z,0.00
2018-07-25T01:45:11.069Z,0.00
2018-07-25T01:46:11.249Z,0.00
2018-07-25T01:47:11.428Z,0.00
2018-07-25T01:48:11.611Z,0.00
2018-07-25T01:49:11.794Z,0.00
2018-07-25T01:50:11.969Z,0.00
2018-07-25T01:51:12.150Z,0.00
2018-07-25T01:52:12.332Z,0.00
2018-07-25T01:53:12.507Z,0.00
2018-07-25T01:54:12.686Z,0.00
2018-07-25T01:55:12.865Z,0.00
2018-07-25T01:56:13.044Z,0.00
2018-07-25T01:57:13.222Z,0.00
2018-07-25T01:58:13.395Z,0.00
2018-07-25T01:59:13.580Z,0.00
2018-07-25T02:00:13.761Z,0.00
2018-07-25T02:01:13.935Z,0.00
2018-07-25T02:02:14.114Z,0.00
2018-07-25T02:03:14.285Z,0.00
2018-07-25T02:04:14.475Z,0.00
2018-07-25T02:05:14.648Z,0.00
2018-07-25T02:06:14.820Z,0.00
2018-07-25T02:07:15.000Z,0.00
2018-07-25T02:08:15.224Z,0.00
2018-07-25T02:09:17.616Z,0.00
2018-07-25T02:10:17.708Z,0.00
2018-07-25T02:11:16.502Z,0.00
2018-07-25T02:12:16.443Z,0.00
2018-07-25T02:13:15.999Z,0.00
2018-07-25T02:14:16.178Z,0.00
2018-07-25T02:15:16.368Z,0.00
2018-07-25T02:16:16.552Z,0.00
2018-07-25T02:17:16.728Z,0.00
2018-07-25T02:18:16.907Z,0.00
2018-07-25T02:19:17.084Z,0.00
2018-07-25T02:20:17.263Z,0.00
2018-07-25T02:21:17.486Z,0.00
2018-07-25T02:22:17.617Z,0.00
2018-07-25T02:23:17.789Z,0.00
2018-07-25T02:24:17.968Z,0.00
2018-07-25T02:25:18.153Z,0.00
2018-07-25T02:26:18.327Z,0.00
2018-07-25T02:27:18.506Z,0.00
2018-07-25T02:28:18.689Z,0.00
2018-07-25T02:29:22.074Z,0.00
2018-07-25T02:30:21.381Z,0.00
2018-07-25T02:31:19.189Z,0.00
2018-07-25T02:32:19.379Z,0.00
2018-07-25T02:33:19.562Z,0.00
2018-07-25T02:34:19.739Z,0.00
2018-07-25T02:35:22.343Z,0.00
2018-07-25T02:36:22.412Z,0.00
2018-07-25T02:37:24.373Z,0.00
2018-07-25T02:38:24.665Z,0.00
2018-07-25T02:39:22.881Z,0.00
2018-07-25T02:40:25.988Z,0.00
2018-07-25T02:41:23.382Z,0.00
2018-07-25T02:42:22.914Z,0.00
2018-07-25T02:43:21.389Z,0.00
2018-07-25T02:44:21.822Z,0.00
2018-07-25T02:45:21.877Z,0.00
2018-07-25T02:46:22.925Z,0.00
2018-07-25T02:47:22.019Z,0.00
2018-07-25T02:48:22.316Z,0.00
2018-07-25T02:49:22.565Z,0.00
2018-07-25T02:50:23.516Z,0.00
2018-07-25T02:51:22.687Z,0.00
2018-07-25T02:52:22.740Z,0.00
2018-07-25T02:53:22.919Z,0.00
2018-07-25T02:54:23.767Z,0.00
2018-07-25T02:55:25.620Z,0.00
2018-07-25T02:56:23.330Z,0.00
2018-07-25T02:57:23.509Z,0.00
2018-07-25T02:58:23.686Z,0.00
2018-07-25T02:59:23.863Z,0.00
2018-07-25T03:00:24.056Z,4.00
2018-07-25T03:01:24.251Z,4.00
2018-07-25T03:02:24.434Z,0.00
2018-07-25T03:03:24.601Z,0.00
2018-07-25T03:04:24.784Z,4.00
2018-07-25T03:05:24.960Z,4.00
2018-07-25T03:06:25.138Z,4.00
2018-07-25T03:07:25.318Z,4.00
2018-07-25T03:08:25.494Z,4.00
2018-07-25T03:09:25.670Z,8.00
2018-07-25T03:10:25.849Z,4.00
2018-07-25T03:11:26.031Z,8.00
2018-07-25T03:12:26.220Z,8.00
2018-07-25T03:13:26.390Z,12.00
2018-07-25T03:14:26.578Z,12.00
2018-07-25T03:15:26.751Z,12.00
2018-07-25T03:16:26.929Z,16.00
2018-07-25T03:17:27.110Z,20.00
2018-07-25T03:18:27.287Z,20.00
2018-07-25T03:19:27.454Z,24.00
2018-07-25T03:20:27.634Z,24.00
2018-07-25T03:21:27.811Z,32.00
2018-07-25T03:22:27.983Z,32.00
2018-07-25T03:23:28.163Z,36.00
2018-07-25T03:24:28.338Z,44.00
2018-07-25T03:25:28.525Z,48.00
2018-07-25T03:26:28.708Z,52.00
2018-07-25T03:27:28.889Z,56.00
2018-07-25T03:28:29.067Z,60.00
2018-07-25T03:29:29.245Z,72.00
2018-07-25T03:30:29.421Z,76.00
2018-07-25T03:31:29.639Z,84.00
2018-07-25T03:32:29.773Z,92.00
2018-07-25T03:33:29.948Z,100.00
2018-07-25T03:34:30.126Z,108.00
2018-07-25T03:35:30.318Z,116.00
2018-07-25T03:36:30.490Z,128.00
2018-07-25T03:37:30.712Z,136.00
2018-07-25T03:38:30.850Z,144.00
2018-07-25T03:39:31.040Z,156.00
2018-07-25T03:40:31.219Z,172.00
2018-07-25T03:41:31.395Z,184.00
2018-07-25T03:42:31.572Z,196.00
2018-07-25T03:43:31.749Z,208.00
2018-07-25T03:44:31.932Z,224.00
2018-07-25T03:45:32.103Z,240.00
2018-07-25T03:46:32.275Z,256.00
2018-07-25T03:47:32.450Z,276.00
2018-07-25T03:48:32.621Z,292.00
2018-07-25T03:49:32.797Z,308.00
2018-07-25T03:50:32.969Z,328.00
2018-07-25T03:51:33.158Z,348.00
2018-07-25T03:52:33.350Z,372.00
2018-07-25T03:53:33.539Z,396.00
2018-07-25T03:54:33.740Z,416.00
2018-07-25T03:55:33.904Z,440.00
2018-07-25T03:56:34.084Z,464.00
2018-07-25T03:57:34.265Z,488.00
2018-07-25T03:58:34.504Z,512.00
2018-07-25T03:59:34.578Z,544.00
2018-07-25T04:00:34.742Z,568.00
2018-07-25T04:01:34.915Z,596.00
2018-07-25T04:02:35.155Z,624.00
2018-07-25T04:03:35.346Z,648.00
2018-07-25T04:04:35.573Z,676.00
2018-07-25T04:05:35.742Z,704.00
2018-07-25T04:06:35.909Z,732.00
2018-07-25T04:07:36.089Z,756.00
2018-07-25T04:08:36.287Z,788.00
2018-07-25T04:09:36.492Z,816.00
2018-07-25T04:10:36.690Z,844.00
2018-07-25T04:11:36.898Z,872.00
2018-07-25T04:12:37.068Z,896.00
2018-07-25T04:13:37.269Z,928.00
2018-07-25T04:14:37.438Z,956.00
2018-07-25T04:15:37.632Z,984.00
2018-07-25T04:16:37.799Z,1012.00
2018-07-25T04:17:37.973Z,1040.00
2018-07-25T04:18:38.143Z,1068.00
2018-07-25T04:19:38.325Z,1104.00
2018-07-25T04:20:38.506Z,1132.00
2018-07-25T04:21:38.681Z,1164.00
2018-07-25T04:22:38.863Z,1192.00
2018-07-25T04:23:39.108Z,1228.00
2018-07-25T04:24:39.177Z,1256.00
2018-07-25T04:25:39.333Z,1288.00
2018-07-25T04:26:39.546Z,1320.00
2018-07-25T04:27:39.737Z,1352.00
2018-07-25T04:28:39.948Z,1388.00
2018-07-25T04:29:40.122Z,1424.00
2018-07-25T04:30:40.314Z,1464.00
2018-07-25T04:31:40.485Z,1500.00
2018-07-25T04:32:40.664Z,1536.00
2018-07-25T04:33:40.858Z,1576.00
2018-07-25T04:34:41.070Z,1616.00
2018-07-25T04:35:41.260Z,1660.00
2018-07-25T04:36:41.441Z,1696.00
2018-07-25T04:37:41.624Z,1732.00
2018-07-25T04:38:41.798Z,1772.00
2018-07-25T04:39:41.980Z,1804.00
2018-07-25T04:40:42.179Z,1840.00
2018-07-25T04:41:42.387Z,1876.00
2018-07-25T04:42:42.615Z,1916.00
2018-07-25T04:43:42.807Z,1956.00
2018-07-25T04:44:43.005Z,2000.00
2018-07-25T04:45:43.259Z,2044.00
2018-07-25T04:46:43.341Z,2088.00
2018-07-25T04:47:43.521Z,2132.00
2018-07-25T04:48:43.688Z,2176.00
2018-07-25T04:49:43.950Z,2220.00
2018-07-25T04:50:44.097Z,2260.00
2018-07-25T04:51:46.024Z,2300.00
2018-07-25T04:52:44.412Z,2340.00
2018-07-25T04:53:44.590Z,2384.00
2018-07-25T04:54:44.773Z,2428.00
2018-07-25T04:55:44.950Z,2476.00
2018-07-25T04:56:45.139Z,2524.00
2018-07-25T04:57:45.935Z,2572.00
2018-07-25T04:58:45.489Z,2620.00
2018-07-25T04:59:45.882Z,2668.00
2018-07-25T05:00:46.136Z,2712.00
2018-07-25T05:01:46.369Z,2760.00
2018-07-25T05:02:46.124Z,2812.00
2018-07-25T05:03:46.199Z,2860.00
2018-07-25T05:04:46.716Z,2904.00
2018-07-25T05:05:46.479Z,2956.00
2018-07-25T05:06:46.754Z,2996.00
2018-07-25T05:07:47.163Z,3040.00
2018-07-25T05:08:47.090Z,3088.00
2018-07-25T05:09:47.272Z,3132.00
2018-07-25T05:10:47.494Z,3176.00
2018-07-25T05:11:47.653Z,3216.00
2018-07-25T05:12:47.838Z,3268.00
2018-07-25T05:13:53.040Z,3320.00
2018-07-25T05:14:48.222Z,3364.00
2018-07-25T05:15:48.416Z,3404.00
2018-07-25T05:16:50.321Z,3448.00
2018-07-25T05:17:48.790Z,3484.00
2018-07-25T05:18:48.959Z,3520.00
2018-07-25T05:19:49.144Z,3568.00
2018-07-25T05:20:49.325Z,3620.00
2018-07-25T05:21:49.509Z,3672.00
2018-07-25T05:22:49.719Z,3724.00
2018-07-25T05:23:50.139Z,3784.00
2018-07-25T05:24:50.048Z,3840.00
2018-07-25T05:25:50.233Z,3896.00
2018-07-25T05:26:50.409Z,3956.00
2018-07-25T05:27:53.748Z,4016.00
2018-07-25T05:28:54.118Z,4076.00
2018-07-25T05:29:51.004Z,4128.00
2018-07-25T05:30:51.109Z,4176.00
2018-07-25T05:31:51.289Z,4228.00
2018-07-25T05:32:51.466Z,4276.00
2018-07-25T05:33:51.649Z,4324.00
2018-07-25T05:34:51.828Z,4372.00
2018-07-25T05:35:52.004Z,4416.00
2018-07-25T05:36:52.181Z,4468.00
2018-07-25T05:37:52.362Z,4516.00
2018-07-25T05:38:52.556Z,4564.00
2018-07-25T05:39:52.740Z,4608.00
2018-07-25T05:40:52.919Z,4656.00
2018-07-25T05:41:53.096Z,4708.00
2018-07-25T05:42:53.274Z,4764.00
2018-07-25T05:43:53.482Z,4828.00
2018-07-25T05:44:53.642Z,4892.00
2018-07-25T05:45:53.819Z,4956.00
2018-07-25T05:46:53.990Z,5028.00
2018-07-25T05:47:54.163Z,5100.00
2018-07-25T05:48:54.341Z,5160.00
2018-07-25T05:49:54.533Z,5228.00
2018-07-25T05:50:54.709Z,5304.00
2018-07-25T05:51:54.884Z,5368.00
2018-07-25T05:52:55.057Z,5432.00
2018-07-25T05:53:55.250Z,5508.00
2018-07-25T05:54:55.414Z,5592.00
2018-07-25T05:55:55.595Z,5696.00
2018-07-25T05:56:55.774Z,5824.00
2018-07-25T05:57:55.955Z,5996.00
2018-07-25T05:58:56.136Z,6240.00
2018-07-25T05:59:56.319Z,6572.00
2018-07-25T06:00:56.509Z,6928.00
2018-07-25T06:01:56.690Z,7264.00
2018-07-25T06:02:56.921Z,7664.00
2018-07-25T06:03:57.046Z,8052.00
2018-07-25T06:04:57.220Z,8324.00
2018-07-25T06:05:57.629Z,8488.00
2018-07-25T06:06:57.580Z,9224.00
2018-07-25T06:07:57.751Z,23168.00
2018-07-25T06:08:57.928Z,51872.00
2018-07-25T06:09:58.110Z,74304.00
2018-07-25T06:10:58.360Z,78176.00
2018-07-25T06:11:58.567Z,79424.00
2018-07-25T06:12:58.800Z,79552.00
2018-07-25T06:13:58.880Z,79616.00
2018-07-25T06:14:59.069Z,78592.00
2018-07-25T06:16:00.889Z,80992.00
2018-07-25T06:16:59.390Z,81408.00
2018-07-25T06:17:59.572Z,80640.00
2018-07-25T06:18:59.760Z,81120.00
2018-07-25T06:19:59.945Z,82816.00
2018-07-25T06:21:00.135Z,85920.00
2018-07-25T06:22:00.325Z,88064.00
2018-07-25T06:23:00.509Z,88000.00
2018-07-25T06:24:00.685Z,85760.00
2018-07-25T06:25:00.874Z,85152.00
2018-07-25T06:26:01.079Z,85216.00
2018-07-25T06:27:01.278Z,85728.00
2018-07-25T06:28:01.449Z,84672.00
2018-07-25T06:29:01.639Z,85248.00
2018-07-25T06:30:01.840Z,85536.00
2018-07-25T06:31:02.023Z,84736.00
2018-07-25T06:32:02.212Z,84448.00
2018-07-25T06:33:02.395Z,84544.00
2018-07-25T06:34:02.608Z,84320.00
2018-07-25T06:35:02.773Z,85632.00
2018-07-25T06:36:02.958Z,87520.00
2018-07-25T06:37:03.191Z,87392.00
2018-07-25T06:38:03.395Z,88320.00
2018-07-25T06:39:03.536Z,89440.00
2018-07-25T06:40:03.715Z,89408.00
2018-07-25T06:41:03.898Z,87360.00
2018-07-25T06:42:04.091Z,87264.00
2018-07-25T06:43:04.275Z,87424.00
2018-07-25T06:44:04.459Z,88384.00
2018-07-25T06:45:04.645Z,89696.00
2018-07-25T06:46:04.841Z,88800.00
2018-07-25T06:47:05.037Z,89504.00
2018-07-25T06:48:05.224Z,90112.00
2018-07-25T06:49:05.414Z,88992.00
2018-07-25T06:50:05.603Z,89312.00
2018-07-25T06:51:05.795Z,90976.00
2018-07-25T06:52:06.012Z,91648.00
2018-07-25T06:53:06.171Z,92960.00
2018-07-25T06:54:06.370Z,93472.00
2018-07-25T06:55:06.574Z,93888.00
2018-07-25T06:56:06.769Z,96032.00
2018-07-25T06:57:07.076Z,95392.00
2018-07-25T06:58:07.118Z,94112.00
2018-07-25T06:59:07.559Z,95712.00
2018-07-25T07:00:07.528Z,96032.00
2018-07-25T07:01:07.588Z,95776.00
2018-07-25T07:02:07.791Z,96672.00
2018-07-25T07:03:07.985Z,96288.00
2018-07-25T07:04:08.175Z,94368.00
2018-07-25T07:05:08.611Z,96768.00
2018-07-25T07:06:08.600Z,98432.00
2018-07-25T07:07:08.788Z,98048.00
2018-07-25T07:08:08.981Z,96480.00
2018-07-25T07:09:09.177Z,97056.00
2018-07-25T07:10:09.376Z,96192.00
2018-07-25T07:11:09.569Z,96608.00
2018-07-25T07:12:09.821Z,97056.00
2018-07-25T07:13:10.002Z,97312.00
2018-07-25T07:14:10.178Z,98048.00
2018-07-25T07:15:11.015Z,98368.00
2018-07-25T07:16:10.498Z,97856.00
2018-07-25T07:17:10.693Z,98336.00
2018-07-25T07:18:10.884Z,99616.00
2018-07-25T07:19:11.080Z,100224.00
2018-07-25T07:20:11.265Z,101632.00
2018-07-25T07:21:11.453Z,101376.00
2018-07-25T07:22:11.665Z,100224.00
2018-07-25T07:23:12.203Z,100032.00
2018-07-25T07:24:12.063Z,102048.00
2018-07-25T07:25:12.206Z,102432.00
2018-07-25T07:26:12.889Z,99904.00
2018-07-25T07:27:12.601Z,99008.00
2018-07-25T07:28:12.942Z,96960.00
2018-07-25T07:29:12.966Z,98592.00
2018-07-25T07:30:13.163Z,100128.00
2018-07-25T07:31:13.390Z,100032.00
2018-07-25T07:32:13.656Z,100000.00
2018-07-25T07:33:14.041Z,100896.00
2018-07-25T07:34:13.963Z,101504.00
2018-07-25T07:35:14.157Z,101760.00
2018-07-25T07:36:14.352Z,102016.00
2018-07-25T07:37:14.625Z,100416.00
2018-07-25T07:38:14.783Z,102720.00
2018-07-25T07:39:14.974Z,102080.00
2018-07-25T07:40:15.163Z,101952.00
2018-07-25T07:41:15.358Z,103104.00
2018-07-25T07:42:15.548Z,106080.00
2018-07-25T07:43:15.742Z,104416.00
2018-07-25T07:44:16.208Z,103424.00
2018-07-25T07:45:16.176Z,103936.00
2018-07-25T07:46:16.388Z,104512.00
2018-07-25T07:47:16.590Z,104864.00
2018-07-25T07:48:16.783Z,106304.00
2018-07-25T07:49:16.970Z,107904.00
2018-07-25T07:50:17.157Z,106688.00
2018-07-25T07:51:17.372Z,105120.00
2018-07-25T07:52:17.562Z,105504.00
2018-07-25T07:53:17.760Z,104000.00
2018-07-25T07:54:17.960Z,102688.00
2018-07-25T07:55:18.158Z,103040.00
2018-07-25T07:56:18.388Z,102944.00
2018-07-25T07:57:18.595Z,103872.00
2018-07-25T07:58:18.786Z,101920.00
2018-07-25T07:59:19.022Z,99968.00
2018-07-25T08:00:19.179Z,100896.00
2018-07-25T08:01:19.401Z,99040.00
2018-07-25T08:02:19.654Z,98176.00
2018-07-25T08:03:19.932Z,98016.00
2018-07-25T08:04:19.925Z,99040.00
2018-07-25T08:05:20.134Z,101472.00
2018-07-25T08:06:20.460Z,103392.00
2018-07-25T08:07:20.468Z,102880.00
2018-07-25T08:08:20.670Z,100000.00
2018-07-25T08:09:21.073Z,97920.00
2018-07-25T08:10:21.031Z,99488.00
2018-07-25T08:11:21.230Z,102784.00
2018-07-25T08:12:21.418Z,104608.00
2018-07-25T08:13:22.374Z,101056.00
2018-07-25T08:14:21.794Z,99712.00
2018-07-25T08:15:21.992Z,102208.00
2018-07-25T08:16:22.192Z,104864.00
2018-07-25T08:17:22.383Z,104512.00
2018-07-25T08:18:22.771Z,103232.00
2018-07-25T08:19:22.960Z,101056.00
2018-07-25T08:20:22.977Z,101696.00
2018-07-25T08:21:23.170Z,101504.00
2018-07-25T08:22:23.372Z,102432.00
2018-07-25T08:23:23.615Z,103232.00
2018-07-25T08:24:23.699Z,103072.00
2018-07-25T08:25:23.892Z,101280.00
2018-07-25T08:26:24.085Z,101472.00
2018-07-25T08:27:24.280Z,101408.00
2018-07-25T08:28:24.477Z,101184.00
2018-07-25T08:29:24.674Z,101536.00
2018-07-25T08:30:24.873Z,101760.00
2018-07-25T08:31:25.582Z,101184.00
2018-07-25T08:32:25.317Z,97696.00
2018-07-25T08:33:25.404Z,95776.00
2018-07-25T08:34:25.634Z,94400.00
2018-07-25T08:35:25.800Z,98496.00
2018-07-25T08:36:26.002Z,100576.00
2018-07-25T08:37:26.201Z,99616.00
2018-07-25T08:38:26.404Z,99552.00
2018-07-25T08:39:26.601Z,100416.00
2018-07-25T08:40:26.798Z,101792.00
2018-07-25T08:41:26.995Z,100992.00
2018-07-25T08:42:27.215Z,98368.00
2018-07-25T08:43:27.391Z,95584.00
2018-07-25T08:44:27.582Z,96864.00
2018-07-25T08:45:27.797Z,96448.00
2018-07-25T08:46:27.990Z,94496.00
2018-07-25T08:47:28.187Z,95136.00
2018-07-25T08:48:28.390Z,97088.00
2018-07-25T08:49:28.593Z,94176.00
2018-07-25T08:50:28.827Z,94560.00
2018-07-25T08:51:29.025Z,94208.00
2018-07-25T08:52:29.243Z,93952.00
2018-07-25T08:53:29.780Z,94720.00
2018-07-25T08:54:29.849Z,92480.00
2018-07-25T08:55:30.161Z,91104.00
2018-07-25T08:56:30.184Z,89664.00
2018-07-25T08:57:30.208Z,87744.00
2018-07-25T08:58:30.437Z,86688.00
2018-07-25T08:59:30.880Z,88512.00
2018-07-25T09:00:30.927Z,92480.00
2018-07-25T09:01:31.187Z,91840.00
2018-07-25T09:02:31.408Z,87264.00
2018-07-25T09:03:31.583Z,75168.00
2018-07-25T09:04:31.758Z,56992.00
2018-07-25T09:05:31.998Z,40672.00
2018-07-25T09:06:32.199Z,32320.00
2018-07-25T09:07:32.365Z,30304.00
2018-07-25T09:08:32.675Z,30240.00
2018-07-25T09:09:32.773Z,29920.00
2018-07-25T09:10:32.865Z,30240.00
2018-07-25T09:11:33.088Z,30752.00
2018-07-25T09:12:33.272Z,30656.00
2018-07-25T09:13:33.586Z,30112.00
2018-07-25T09:14:33.657Z,30016.00
2018-07-25T09:15:33.812Z,30208.00
2018-07-25T09:16:33.964Z,30240.00
2018-07-25T09:17:36.155Z,30016.00
2018-07-25T09:18:34.367Z,29472.00
2018-07-25T09:19:34.370Z,29216.00
2018-07-25T09:20:34.575Z,29152.00
2018-07-25T09:21:34.802Z,29152.00
2018-07-25T09:22:34.983Z,28928.00
2018-07-25T09:23:35.282Z,29056.00
2018-07-25T09:24:35.428Z,28864.00
2018-07-25T09:25:35.719Z,28640.00
2018-07-25T09:26:35.626Z,28480.00
2018-07-25T09:27:35.956Z,28608.00
2018-07-25T09:28:36.076Z,28480.00
2018-07-25T09:29:35.911Z,28512.00
2018-07-25T09:30:36.380Z,28992.00
2018-07-25T09:31:37.246Z,29472.00
2018-07-25T09:32:36.742Z,30176.00
2018-07-25T09:33:36.785Z,31168.00
2018-07-25T09:34:37.090Z,33152.00
2018-07-25T09:35:37.147Z,34880.00
2018-07-25T09:36:37.457Z,36224.00
2018-07-25T09:37:37.513Z,37952.00
2018-07-25T09:38:37.720Z,39808.00
2018-07-25T09:39:37.943Z,45376.00
2018-07-25T09:40:38.170Z,56384.00
2018-07-25T09:41:38.268Z,65216.00
2018-07-25T09:42:38.454Z,71392.00
2018-07-25T09:43:38.812Z,71104.00
2018-07-25T09:44:38.861Z,69952.00
2018-07-25T09:45:39.169Z,71136.00
2018-07-25T09:46:39.077Z,72320.00
2018-07-25T09:47:39.541Z,68064.00
2018-07-25T09:48:39.490Z,61952.00
2018-07-25T09:49:39.532Z,54304.00
2018-07-25T09:50:39.790Z,47136.00
2018-07-25T09:51:39.988Z,44448.00
2018-07-25T09:52:40.220Z,46112.00
2018-07-25T09:53:40.402Z,45504.00
2018-07-25T09:54:40.602Z,42976.00
2018-07-25T09:55:40.809Z,41024.00
2018-07-25T09:56:41.034Z,40960.00
2018-07-25T09:57:41.213Z,40640.00
2018-07-25T09:58:41.418Z,42112.00
2018-07-25T09:59:41.622Z,43104.00
2018-07-25T10:00:41.815Z,43616.00
2018-07-25T10:01:42.064Z,40864.00
2018-07-25T10:02:42.222Z,38752.00
2018-07-25T10:03:42.412Z,37088.00
2018-07-25T10:04:42.627Z,36512.00
2018-07-25T10:05:42.979Z,36000.00
2018-07-25T10:06:42.992Z,35392.00
2018-07-25T10:07:43.262Z,34624.00
2018-07-25T10:08:43.373Z,35136.00
2018-07-25T10:09:43.831Z,35456.00
2018-07-25T10:10:43.690Z,34912.00
2018-07-25T10:11:43.889Z,34784.00
2018-07-25T10:12:44.084Z,35968.00
2018-07-25T10:13:44.301Z,35040.00
2018-07-25T10:14:44.490Z,32288.00
2018-07-25T10:15:44.683Z,28352.00
2018-07-25T10:16:44.868Z,21568.00
2018-07-25T10:17:45.062Z,14472.00
2018-07-25T10:18:45.257Z,12300.00
2018-07-25T10:19:45.467Z,11912.00
2018-07-25T10:20:45.773Z,11644.00
2018-07-25T10:21:45.926Z,11548.00
2018-07-25T10:22:46.067Z,11332.00
2018-07-25T10:23:46.271Z,11248.00
2018-07-25T10:24:46.492Z,11120.00
2018-07-25T10:25:46.665Z,9596.00
2018-07-25T10:26:46.865Z,10944.00
2018-07-25T10:27:47.063Z,11124.00
2018-07-25T10:28:47.254Z,11072.00
2018-07-25T10:29:47.446Z,11140.00
2018-07-25T10:30:47.635Z,11472.00
2018-07-25T10:31:47.935Z,11556.00
2018-07-25T10:32:48.049Z,11548.00
2018-07-25T10:33:48.217Z,11572.00
2018-07-25T10:34:48.452Z,8832.00
2018-07-25T10:35:48.669Z,9300.00
2018-07-25T10:36:49.228Z,10916.00
2018-07-25T10:37:48.995Z,8024.00
2018-07-25T10:38:49.262Z,7932.00
2018-07-25T10:39:49.324Z,8020.00
2018-07-25T10:40:49.513Z,8784.00
2018-07-25T10:41:49.708Z,10020.00
2018-07-25T10:42:49.893Z,9768.00
2018-07-25T10:43:50.105Z,9408.00
2018-07-25T10:44:50.290Z,9064.00
2018-07-25T10:45:50.505Z,8772.00
2018-07-25T10:46:50.676Z,8284.00
2018-07-25T10:47:53.528Z,7888.00
2018-07-25T10:48:52.357Z,7632.00
2018-07-25T10:49:51.353Z,7536.00
2018-07-25T10:50:51.497Z,7608.00
2018-07-25T10:51:51.693Z,7752.00
2018-07-25T10:52:51.881Z,7684.00
2018-07-25T10:53:52.102Z,7736.00
2018-07-25T10:54:52.976Z,7708.00
2018-07-25T10:55:52.895Z,7900.00
2018-07-25T10:56:52.635Z,7880.00
2018-07-25T10:57:53.007Z,7824.00
2018-07-25T10:58:53.006Z,7580.00
2018-07-25T10:59:54.040Z,7552.00
2018-07-25T11:00:53.350Z,7484.00
2018-07-25T11:01:54.265Z,7336.00
2018-07-25T11:02:54.655Z,6972.00
2018-07-25T11:03:54.340Z,6756.00
2018-07-25T11:04:54.081Z,6748.00
2018-07-25T11:05:54.361Z,6688.00
2018-07-25T11:06:54.465Z,6796.00
2018-07-25T11:07:54.896Z,6888.00
2018-07-25T11:08:56.051Z,6844.00
2018-07-25T11:09:55.115Z,6816.00
2018-07-25T11:10:56.351Z,6768.00
2018-07-25T11:11:56.148Z,6676.00
2018-07-25T11:12:55.845Z,6724.00
2018-07-25T11:13:55.822Z,6200.00
2018-07-25T11:14:55.881Z,6468.00
2018-07-25T11:15:56.249Z,6032.00
2018-07-25T11:16:56.409Z,5964.00
2018-07-25T11:17:57.445Z,5840.00
2018-07-25T11:18:56.731Z,5772.00
2018-07-25T11:19:56.914Z,5696.00
2018-07-25T11:20:56.803Z,5708.00
2018-07-25T11:21:57.164Z,5688.00
2018-07-25T11:22:57.243Z,5804.00
2018-07-25T11:23:58.643Z,5800.00
2018-07-25T11:24:57.666Z,5784.00
2018-07-25T11:25:58.030Z,5684.00
2018-07-25T11:26:58.173Z,5448.00
2018-07-25T11:27:58.251Z,5228.00
2018-07-25T11:28:58.520Z,4304.00
2018-07-25T11:29:58.522Z,4208.00
2018-07-25T11:30:58.691Z,4276.00
2018-07-25T11:31:58.717Z,4592.00
2018-07-25T11:32:59.303Z,5212.00
2018-07-25T11:33:59.682Z,4740.00
2018-07-25T11:35:00.045Z,4852.00
2018-07-25T11:35:59.928Z,5028.00
2018-07-25T11:37:01.317Z,5256.00
2018-07-25T11:38:00.169Z,5472.00
2018-07-25T11:39:00.434Z,5708.00
2018-07-25T11:40:00.714Z,5944.00
2018-07-25T11:41:00.633Z,6100.00
2018-07-25T11:42:00.713Z,6092.00
2018-07-25T11:43:00.948Z,5952.00
2018-07-25T11:44:01.117Z,5868.00
2018-07-25T11:45:03.143Z,5836.00
2018-07-25T11:46:02.285Z,5840.00
2018-07-25T11:47:02.881Z,5896.00
2018-07-25T11:48:02.196Z,5952.00
2018-07-25T11:49:03.653Z,6004.00
2018-07-25T11:50:03.002Z,6056.00
2018-07-25T11:51:03.117Z,6080.00
2018-07-25T11:52:02.630Z,5996.00
2018-07-25T11:53:02.888Z,6028.00
2018-07-25T11:54:02.837Z,6088.00
2018-07-25T11:55:03.211Z,6172.00
2018-07-25T11:56:03.145Z,6324.00
2018-07-25T11:57:03.425Z,6600.00
2018-07-25T11:58:03.398Z,6692.00
2018-07-25T11:59:03.480Z,6516.00
2018-07-25T12:00:03.628Z,6744.00
2018-07-25T12:01:03.845Z,6696.00
2018-07-25T12:02:04.033Z,6444.00
2018-07-25T12:03:04.222Z,6240.00
2018-07-25T12:04:04.409Z,6024.00
2018-07-25T12:05:04.613Z,5912.00
2018-07-25T12:06:04.804Z,5844.00
2018-07-25T12:07:04.990Z,5756.00
2018-07-25T12:08:05.175Z,5716.00
2018-07-25T12:09:05.355Z,5716.00
2018-07-25T12:10:05.538Z,5680.00
2018-07-25T12:11:05.725Z,5528.00
2018-07-25T12:12:05.909Z,5448.00
2018-07-25T12:13:06.094Z,5376.00
2018-07-25T12:14:06.280Z,5360.00
2018-07-25T12:15:06.486Z,5300.00
2018-07-25T12:16:06.673Z,5040.00
2018-07-25T12:17:06.860Z,4796.00
2018-07-25T12:18:07.089Z,4724.00